Time;durP1;ratioP1;P1;durP2;ratioP2;P2;SDS_P1;SDS_P2;PMS_P1;PMS_P2;Temp;Humidity;BMP_temperature;BMP_pressure;BME280_temperature;BME280_humidity;BME280_pressure;Samples;Min_cycle;Max_cycle;Signal;HPM_P1;HPM_P2
2021/12/07 00:01:54;;;;;;;4.90;3.17;;;;;;;-10.81;88.16;102025.94;6338688;28;20190;-73
2021/12/07 00:04:58;;;;;;;5.63;2.77;;;;;;;-10.77;88.75;102027.53;6337998;28;20400;-74
2021/12/07 00:08:03;;;;;;;3.00;2.80;;;;;;;-10.92;88.39;102028.06;6357190;28;20233;-74
2021/12/07 00:11:12;;;;;;;2.60;2.50;;;;;;;-10.95;88.31;102025.53;6362621;28;20193;-74
2021/12/07 00:14:24;;;;;;;7.20;3.17;;;;;;;-10.94;88.79;102027.25;6363528;28;20190;-74
2021/12/07 00:17:28;;;;;;;3.07;2.93;;;;;;;-10.97;88.65;102024.72;6364109;28;20182;-74
2021/12/07 00:20:33;;;;;;;3.97;3.63;;;;;;;-10.97;88.75;102028.22;6363480;28;20247;-73
2021/12/07 00:23:38;;;;;;;3.50;2.73;;;;;;;-10.93;88.92;102021.94;6362663;28;20187;-74
2021/12/07 00:26:50;;;;;;;3.33;3.13;;;;;;;-10.90;88.89;102024.47;6362096;28;20492;-73
2021/12/07 00:29:57;;;;;;;3.67;3.10;;;;;;;-10.86;88.53;102033.16;6363479;28;20223;-73
2021/12/07 00:33:12;;;;;;;3.20;3.10;;;;;;;-10.95;88.55;102025.53;6362088;28;20194;-74
2021/12/07 00:36:17;;;;;;;3.40;3.17;;;;;;;-10.81;88.31;102028.56;6362513;28;20182;-74
2021/12/07 00:39:24;;;;;;;3.00;2.77;;;;;;;-10.87;88.61;102019.09;6344246;28;20224;-75
2021/12/07 00:42:28;;;;;;;3.07;2.97;;;;;;;-10.84;88.14;102012.84;6361888;28;20492;-74
2021/12/07 00:45:35;;;;;;;3.63;3.33;;;;;;;-10.86;88.22;102010.25;6361796;28;20462;-74
2021/12/07 00:48:39;;;;;;;2.57;2.50;;;;;;;-10.97;88.65;102024.72;6362332;28;20192;-73
2021/12/07 00:51:44;;;;;;;4.80;3.17;;;;;;;-10.95;88.32;102015.00;6343772;28;20536;-74
2021/12/07 00:54:49;;;;;;;10.03;2.77;;;;;;;-11.06;88.70;102020.63;6362537;28;20183;-74
2021/12/07 00:57:57;;;;;;;3.23;2.97;;;;;;;-11.03;88.63;102017.00;6343494;28;20198;-74
2021/12/07 01:01:07;;;;;;;2.30;2.30;;;;;;;-11.01;88.67;102031.00;6343628;28;20286;-74
2021/12/07 01:04:13;;;;;;;2.53;2.43;;;;;;;-10.96;88.29;102031.69;6344050;28;20378;-74
2021/12/07 01:07:36;;;;;;;2.90;2.80;;;;;;;-10.90;87.99;102028.88;6362500;28;20189;-74
2021/12/07 01:27:33;;;;;;;2.70;2.50;;;;;;;-10.96;87.62;102023.78;6343723;28;20229;-74
2021/12/07 01:30:43;;;;;;;3.13;2.93;;;;;;;-11.01;87.64;102023.09;6362491;28;20253;-74
2021/12/07 01:37:26;;;;;;;3.70;3.50;;;;;;;-11.10;87.53;102026.06;6360343;28;20365;-74
2021/12/07 01:40:45;;;;;;;3.70;3.40;;;;;;;-11.05;87.20;102013.59;6344506;28;20220;-73
2021/12/07 01:44:15;;;;;;;3.57;3.37;;;;;;;-11.01;87.52;102008.13;6343418;28;20206;-73
2021/12/07 01:47:31;;;;;;;3.20;3.10;;;;;;;-11.19;87.84;102003.50;6345933;28;20198;-74
2021/12/07 01:50:49;;;;;;;2.93;2.83;;;;;;;-11.25;87.81;102006.34;6348590;28;20208;-73
2021/12/07 02:00:45;;;;;;;3.60;3.30;;;;;;;-10.99;87.44;102018.66;6316950;28;20530;-74
2021/12/07 02:03:50;;;;;;;2.57;2.47;;;;;;;-11.00;87.04;102006.38;6318141;28;20230;-73
2021/12/07 02:06:57;;;;;;;3.37;3.13;;;;;;;-11.18;87.04;102012.25;6318611;28;20198;-73
2021/12/07 02:10:07;;;;;;;2.07;1.97;;;;;;;-11.19;87.36;102015.78;6319839;28;20203;-74
2021/12/07 02:14:01;;;;;;;3.40;3.20;;;;;;;-11.13;87.16;102020.88;6321237;28;20490;-74
2021/12/07 02:16:47;;;;;;;2.53;2.43;;;;;;;-11.25;87.40;102010.75;6317073;28;20501;-73
2021/12/07 02:19:52;;;;;;;3.43;2.97;;;;;;;-11.27;87.36;102007.31;6318026;28;20222;-73
2021/12/07 02:22:58;;;;;;;3.20;3.10;;;;;;;-11.45;87.66;102002.66;6340880;28;20221;-73
2021/12/07 02:26:02;;;;;;;3.27;3.07;;;;;;;-11.39;87.33;102005.06;6318735;28;20199;-73
2021/12/07 02:29:07;;;;;;;4.77;2.70;;;;;;;-11.54;87.73;102009.94;6319489;28;20378;-74
2021/12/07 02:32:12;;;;;;;3.50;3.23;;;;;;;-11.49;87.80;102013.28;6321143;28;20198;-73
2021/12/07 02:35:23;;;;;;;3.10;2.90;;;;;;;-11.27;87.02;102017.84;6339973;28;20246;-73
2021/12/07 02:38:32;;;;;;;3.17;2.97;;;;;;;-11.32;86.93;102014.50;6313642;28;20575;-73
2021/12/07 02:41:36;;;;;;;5.97;2.77;;;;;;;-11.43;86.61;102012.22;6340681;28;20292;-73
2021/12/07 02:44:42;;;;;;;3.13;2.93;;;;;;;-11.51;87.32;102016.88;6316365;28;20382;-73
2021/12/07 02:47:49;;;;;;;3.43;3.20;;;;;;;-11.62;87.34;102018.97;6317307;28;20206;-73
2021/12/07 02:50:55;;;;;;;6.37;3.80;;;;;;;-11.67;87.97;102013.84;6317820;28;20207;-73
2021/12/07 02:54:04;;;;;;;11.20;3.27;;;;;;;-11.71;87.59;102012.25;6318301;28;20199;-73
2021/12/07 02:57:10;;;;;;;2.60;2.50;;;;;;;-11.79;88.38;102013.41;6319066;28;20206;-74
2021/12/07 03:00:20;;;;;;;2.07;1.87;;;;;;;-11.86;89.20;102006.63;6339031;28;20213;-73
2021/12/07 03:03:25;;;;;;;3.10;3.00;;;;;;;-11.57;88.46;102003.88;6313207;28;20199;-73
2021/12/07 03:06:46;;;;;;;4.13;3.83;;;;;;;-11.57;88.43;102015.28;6339196;28;20218;-74
2021/12/07 03:25:50;;;;;;;3.80;3.40;;;;;;;-11.57;88.30;101999.47;6316995;28;20206;-75
2021/12/07 03:27:08;;;;;;;2.83;2.70;;;;;;;-11.47;88.01;101993.00;6319053;28;20199;-74
2021/12/07 03:30:13;;;;;;;8.70;3.07;;;;;;;-11.54;88.21;101999.38;6318894;28;20213;-74
2021/12/07 03:33:19;;;;;;;4.00;2.83;;;;;;;-11.41;88.33;102013.03;6320862;28;20187;-74
2021/12/07 03:36:26;;;;;;;3.60;3.40;;;;;;;-11.39;87.57;102011.19;6312223;28;20509;-74
2021/12/07 03:39:33;;;;;;;6.63;3.20;;;;;;;-11.32;87.56;102019.78;6313660;28;20231;-74
2021/12/07 03:42:40;;;;;;;2.50;2.50;;;;;;;-11.44;87.41;102015.75;6313973;28;20587;-74
2021/12/07 03:45:49;;;;;;;3.50;3.20;;;;;;;-11.46;87.17;102017.56;6315158;28;20198;-74
2021/12/07 03:48:54;;;;;;;3.13;2.97;;;;;;;-11.49;87.63;102022.94;6315754;28;20234;-74
2021/12/07 03:52:00;;;;;;;2.90;2.80;;;;;;;-11.48;87.83;102019.41;6326918;28;20507;-74
2021/12/07 03:55:07;;;;;;;2.70;2.63;;;;;;;-11.40;87.26;102020.03;6344656;28;20197;-74
2021/12/07 03:58:14;;;;;;;1.83;1.83;;;;;;;-11.58;87.59;102021.44;6345698;28;20276;-74
2021/12/07 04:01:23;;;;;;;4.00;3.60;;;;;;;-11.51;87.87;102036.16;6344998;28;20250;-74
2021/12/07 04:04:28;;;;;;;2.80;2.63;;;;;;;-11.54;87.46;102020.47;6344732;28;20198;-74
2021/12/07 04:07:33;;;;;;;3.07;2.93;;;;;;;-11.64;87.25;102032.19;6362801;28;20545;-74
2021/12/07 04:10:38;;;;;;;3.23;2.93;;;;;;;-11.62;87.29;102026.88;6344279;28;20386;-74
2021/12/07 04:13:45;;;;;;;3.40;3.10;;;;;;;-11.59;87.10;102014.47;6344636;28;20380;-73
2021/12/07 04:16:53;;;;;;;2.40;2.30;;;;;;;-11.62;87.17;102005.81;6344827;28;20265;-74
2021/12/07 04:19:57;;;;;;;2.67;2.57;;;;;;;-11.70;87.27;102003.44;6345094;28;20198;-75
2021/12/07 04:23:02;;;;;;;2.63;2.53;;;;;;;-11.58;87.03;102003.00;6345282;28;20222;-75
2021/12/07 04:26:11;;;;;;;2.83;2.63;;;;;;;-11.56;86.58;102001.22;6363680;28;20217;-74
2021/12/07 04:29:16;;;;;;;2.63;2.53;;;;;;;-11.52;86.32;102008.09;6363652;28;20190;-74
2021/12/07 04:32:21;;;;;;;3.40;2.80;;;;;;;-11.59;86.83;102009.22;6363646;28;20214;-74
2021/12/07 04:35:26;;;;;;;2.47;2.47;;;;;;;-11.59;86.76;102011.84;6363469;28;20262;-74
2021/12/07 04:38:30;;;;;;;2.93;2.83;;;;;;;-11.58;86.66;102013.53;6363417;28;20190;-74
2021/12/07 04:41:34;;;;;;;2.93;2.40;;;;;;;-11.70;86.91;102008.72;6363279;28;20232;-74
2021/12/07 04:44:48;;;;;;;2.77;2.57;;;;;;;-11.72;87.20;102015.81;6363121;28;20251;-74
2021/12/07 04:48:05;;;;;;;3.07;2.90;;;;;;;-11.60;86.79;102004.84;6362409;28;20186;-74
2021/12/07 04:58:08;;;;;;;6.10;2.60;;;;;;;-11.72;86.75;102005.28;6362752;28;20288;-74
2021/12/07 05:01:15;;;;;;;3.07;2.87;;;;;;;-11.84;86.77;102005.66;6361935;28;20206;-75
2021/12/07 05:04:24;;;;;;;3.43;3.33;;;;;;;-11.90;87.76;102005.84;6362610;28;20182;-74
2021/12/07 05:07:33;;;;;;;3.10;2.97;;;;;;;-11.91;88.09;101998.84;6362659;28;20182;-74
2021/12/07 05:11:00;;;;;;;3.50;3.20;;;;;;;-11.78;87.67;102002.81;6362562;28;20191;-74
2021/12/07 05:14:18;;;;;;;2.50;2.40;;;;;;;-11.83;87.67;101996.84;6362819;28;20189;-74
2021/12/07 05:17:40;;;;;;;2.70;2.57;;;;;;;-11.73;88.16;102008.81;6361509;28;20244;-74
2021/12/07 05:24:19;;;;;;;2.40;2.20;;;;;;;-11.75;88.30;102005.34;6324764;28;20507;-74
2021/12/07 05:37:45;;;;;;;4.80;2.83;;;;;;;-11.62;88.89;102004.03;6366348;28;20376;-74
2021/12/07 05:40:49;;;;;;;2.80;2.60;;;;;;;-11.52;88.97;102002.81;6366323;28;20254;-74
2021/12/07 05:43:54;;;;;;;2.43;2.43;;;;;;;-11.58;88.77;102005.66;6366589;28;20214;-75
2021/12/07 05:46:59;;;;;;;3.63;3.30;;;;;;;-11.64;88.74;102008.50;6367672;28;20186;-74
2021/12/07 05:50:07;;;;;;;5.57;3.70;;;;;;;-11.69;89.17;102009.56;6367149;28;20182;-76
2021/12/07 05:53:17;;;;;;;9.83;2.77;;;;;;;-11.78;89.27;102009.84;6365887;28;20533;-74
2021/12/07 05:56:21;;;;;;;2.90;2.80;;;;;;;-11.75;89.72;102000.09;6366898;28;20251;-74
2021/12/07 05:59:26;;;;;;;2.40;2.40;;;;;;;-11.72;89.07;101992.09;6365829;28;20485;-74
2021/12/07 06:02:30;;;;;;;3.27;3.03;;;;;;;-11.74;88.55;102004.47;6365797;28;20214;-74
2021/12/07 06:05:38;;;;;;;3.43;3.20;;;;;;;-11.72;88.24;102002.63;6365815;28;20213;-74
2021/12/07 06:08:42;;;;;;;3.53;3.30;;;;;;;-11.72;88.26;101994.75;6366832;28;20182;-74
2021/12/07 06:11:49;;;;;;;6.50;3.30;;;;;;;-11.76;88.23;101998.34;6366472;28;20230;-74
2021/12/07 06:14:55;;;;;;;4.23;2.80;;;;;;;-11.80;88.35;102001.16;6366778;28;20254;-73
2021/12/07 06:18:00;;;;;;;3.10;2.97;;;;;;;-11.83;89.14;101986.31;6366890;28;20190;-73
2021/12/07 06:21:06;;;;;;;3.53;3.33;;;;;;;-11.82;88.66;101992.44;6365567;28;20185;-74
2021/12/07 06:24:10;;;;;;;2.63;2.63;;;;;;;-11.69;88.25;101985.88;6366437;28;20209;-74
2021/12/07 06:27:15;;;;;;;3.40;3.13;;;;;;;-11.69;87.95;101994.66;6365045;28;20190;-73
2021/12/07 06:30:19;;;;;;;3.33;3.13;;;;;;;-11.70;88.65;102002.56;6366264;28;20221;-74
2021/12/07 06:33:26;;;;;;;2.73;2.63;;;;;;;-11.60;88.49;102010.09;6364456;28;20186;-74
2021/12/07 06:36:31;;;;;;;3.70;3.40;;;;;;;-11.61;88.46;102008.41;6364738;28;20235;-74
2021/12/07 06:39:36;;;;;;;3.13;3.03;;;;;;;-11.64;87.95;102026.94;6364748;28;20471;-74
2021/12/07 06:42:41;;;;;;;3.03;2.90;;;;;;;-11.59;88.18;102024.16;6365861;28;20205;-73
2021/12/07 06:45:46;;;;;;;3.97;3.67;;;;;;;-11.59;88.06;102032.91;6364714;28;20466;-74
2021/12/07 06:48:50;;;;;;;3.60;3.33;;;;;;;-11.59;87.85;102017.13;6347035;28;20352;-74
2021/12/07 06:51:57;;;;;;;3.73;3.40;;;;;;;-11.55;87.86;102018.72;6365302;28;20305;-73
2021/12/07 06:55:01;;;;;;;7.40;3.77;;;;;;;-11.58;88.11;102031.97;6365368;28;20250;-73
2021/12/07 06:58:07;;;;;;;7.07;3.83;;;;;;;-11.66;89.17;102025.25;6365613;28;20197;-74
2021/12/07 07:01:14;;;;;;;3.20;2.93;;;;;;;-11.57;88.46;102004.75;6365815;28;20189;-75
2021/12/07 07:04:19;;;;;;;2.70;2.60;;;;;;;-11.57;88.25;102010.00;6364760;28;20272;-75
2021/12/07 07:07:24;;;;;;;3.93;2.43;;;;;;;-11.67;88.65;102008.59;6364780;28;20191;-74
2021/12/07 07:10:29;;;;;;;3.83;3.60;;;;;;;-11.68;88.61;101995.47;6363921;28;20515;-74
2021/12/07 07:13:34;;;;;;;3.30;3.10;;;;;;;-11.59;88.50;101989.91;6364256;28;20186;-74
2021/12/07 07:16:39;;;;;;;6.23;3.13;;;;;;;-11.71;88.84;102012.25;6363490;28;20205;-74
2021/12/07 07:19:44;;;;;;;3.57;3.37;;;;;;;-11.67;89.03;102003.31;6365061;28;20221;-75
2021/12/07 07:22:50;;;;;;;2.50;2.40;;;;;;;-11.61;88.87;102011.03;6363727;28;20209;-75
2021/12/07 07:25:55;;;;;;;3.20;3.10;;;;;;;-11.58;89.02;102010.91;6364743;28;20322;-74
2021/12/07 07:29:00;;;;;;;3.27;2.93;;;;;;;-11.52;88.79;102021.25;6364735;28;20182;-74
2021/12/07 07:32:05;;;;;;;3.87;3.30;;;;;;;-11.49;88.54;101997.47;6364700;28;20182;-74
2021/12/07 07:35:11;;;;;;;6.53;3.13;;;;;;;-11.42;88.43;102013.06;6364654;28;20189;-73
2021/12/07 07:38:17;;;;;;;3.90;3.53;;;;;;;-11.35;89.02;102012.84;6363872;28;20221;-74
2021/12/07 07:41:22;;;;;;;3.50;3.20;;;;;;;-11.30;88.27;102002.13;6363127;28;20182;-73
2021/12/07 07:44:26;;;;;;;2.60;2.50;;;;;;;-11.16;87.99;102006.03;6362660;28;20435;-73
2021/12/07 07:47:31;;;;;;;2.33;2.23;;;;;;;-11.10;88.85;102015.50;6363941;28;20214;-74
2021/12/07 07:50:35;;;;;;;3.53;3.03;;;;;;;-11.02;88.56;102024.03;6362515;28;20505;-74
2021/12/07 07:53:41;;;;;;;3.33;3.13;;;;;;;-11.03;88.89;102032.84;6362912;28;20230;-74
2021/12/07 07:56:45;;;;;;;4.77;2.47;;;;;;;-10.94;88.96;102027.25;6364141;28;20182;-74
2021/12/07 07:59:51;;;;;;;3.40;3.23;;;;;;;-10.94;88.94;102032.53;6364122;28;20186;-74
2021/12/07 08:02:55;;;;;;;4.33;3.93;;;;;;;-11.01;89.12;102031.88;6364178;28;20209;-74
2021/12/07 08:06:00;;;;;;;4.07;3.77;;;;;;;-10.96;89.30;102019.38;6364055;28;20186;-74
2021/12/07 08:09:08;;;;;;;3.43;3.17;;;;;;;-10.90;89.04;102023.59;6344754;28;20296;-74
2021/12/07 08:12:13;;;;;;;3.43;3.23;;;;;;;-10.86;88.72;102019.97;6363992;28;20221;-74
2021/12/07 08:15:18;;;;;;;2.87;2.77;;;;;;;-10.79;88.53;102021.47;6363818;28;20239;-74
2021/12/07 08:18:22;;;;;;;3.50;3.37;;;;;;;-10.71;88.28;102019.44;6362673;28;20407;-74
2021/12/07 08:21:27;;;;;;;9.13;2.87;;;;;;;-10.67;88.32;102015.75;6363781;28;20182;-75
2021/12/07 08:24:32;;;;;;;3.13;2.93;;;;;;;-10.68;88.86;102008.75;6363332;28;20209;-75
2021/12/07 08:27:36;;;;;;;3.07;2.90;;;;;;;-10.63;88.79;102030.53;6362334;28;20370;-75
2021/12/07 08:30:41;;;;;;;3.23;3.13;;;;;;;-10.55;88.94;102031.13;6362632;28;20339;-74
2021/12/07 08:33:46;;;;;;;2.60;2.50;;;;;;;-10.46;88.86;102040.50;6363490;28;20186;-75
2021/12/07 08:36:50;;;;;;;2.70;2.70;;;;;;;-10.60;89.26;102048.91;6363404;28;20190;-75
2021/12/07 08:39:56;;;;;;;2.70;2.60;;;;;;;-10.40;88.36;102045.56;6362062;28;20541;-75
2021/12/07 08:43:01;;;;;;;2.90;2.73;;;;;;;-10.41;88.00;102044.72;6363075;28;20189;-74
2021/12/07 08:46:08;;;;;;;2.67;2.47;;;;;;;-10.32;87.23;102048.81;6363358;28;20228;-75
2021/12/07 08:49:15;;;;;;;2.33;2.30;;;;;;;-10.48;87.56;102053.75;6362268;28;20182;-76
2021/12/07 08:52:19;;;;;;;2.43;2.33;;;;;;;-10.43;87.47;102041.28;6361799;28;20238;-75
2021/12/07 09:02:15;;;;;;;3.43;3.20;;;;;;;-10.35;86.17;102044.47;6361781;28;20481;-75
2021/12/07 09:05:20;;;;;;;2.17;2.17;;;;;;;-10.54;86.74;102038.16;6362469;28;20280;-75
2021/12/07 09:08:24;;;;;;;3.27;2.93;;;;;;;-10.40;87.13;102040.31;6362737;28;20268;-74
2021/12/07 09:11:30;;;;;;;3.47;3.20;;;;;;;-10.40;86.60;102035.84;6362843;28;20182;-74
2021/12/07 09:14:35;;;;;;;3.13;2.93;;;;;;;-10.33;86.79;102037.38;6361341;28;20470;-74
2021/12/07 09:17:40;;;;;;;4.67;3.13;;;;;;;-10.35;86.38;102038.34;6361953;28;20182;-74
2021/12/07 09:20:44;;;;;;;2.90;2.70;;;;;;;-10.18;86.45;102040.34;6362737;28;20194;-74
2021/12/07 09:23:49;;;;;;;3.10;2.80;;;;;;;-10.17;86.68;102042.97;6362392;28;20206;-74
2021/12/07 09:26:57;;;;;;;6.90;2.87;;;;;;;-10.21;87.21;102031.66;6362338;28;20214;-75
2021/12/07 09:30:01;;;;;;;2.63;2.63;;;;;;;-10.10;87.32;102038.28;6361702;28;20182;-74
2021/12/07 09:33:07;;;;;;;3.43;2.50;;;;;;;-9.98;87.00;102048.38;6361227;28;20476;-75
2021/12/07 09:36:14;;;;;;;2.40;2.40;;;;;;;-10.05;87.52;102042.47;6362539;28;20260;-75
2021/12/07 09:39:19;;;;;;;2.63;2.40;;;;;;;-9.97;87.74;102039.53;6362412;28;20183;-75
2021/12/07 09:42:25;;;;;;;2.87;2.70;;;;;;;-9.97;87.95;102034.25;6362472;28;20182;-74
2021/12/07 09:45:31;;;;;;;3.00;2.90;;;;;;;-9.82;87.40;102033.66;6361908;28;20287;-74
2021/12/07 09:48:36;;;;;;;4.00;3.17;;;;;;;-9.89;87.80;102040.13;6361963;28;20311;-74
2021/12/07 09:51:41;;;;;;;2.70;2.63;;;;;;;-9.86;87.95;102047.94;6361973;28;20257;-74
2021/12/07 09:54:45;;;;;;;3.90;2.87;;;;;;;-9.64;87.10;102047.03;6361039;28;20470;-75
2021/12/07 09:57:51;;;;;;;3.30;3.10;;;;;;;-9.69;87.23;102046.34;6360935;28;20357;-75
2021/12/07 10:00:56;;;;;;;2.73;2.63;;;;;;;-9.61;86.81;102038.13;6361998;28;20182;-75
2021/12/07 10:04:01;;;;;;;5.67;3.63;;;;;;;-9.67;87.31;102027.78;6361893;28;20275;-75
2021/12/07 10:07:08;;;;;;;3.33;3.03;;;;;;;-9.68;87.41;102041.94;6363210;28;20182;-74
2021/12/07 10:10:20;;;;;;;3.20;3.00;;;;;;;-9.50;87.11;102030.66;6366618;28;20189;-74
2021/12/07 10:13:28;;;;;;;3.07;2.87;;;;;;;-9.50;86.77;102033.28;6366579;28;20236;-74
2021/12/07 10:16:32;;;;;;;3.13;2.83;;;;;;;-9.33;85.49;102028.19;6366550;28;20302;-74
2021/12/07 10:19:42;;;;;;;2.93;2.83;;;;;;;-9.42;85.71;102033.00;6365381;28;20527;-76
2021/12/07 10:22:47;;;;;;;4.80;3.70;;;;;;;-9.47;86.31;102022.56;6365913;28;20182;-76
2021/12/07 10:25:55;;;;;;;9.37;2.77;;;;;;;-9.61;86.76;102017.00;6365291;28;20444;-74
2021/12/07 10:29:08;;;;;;;2.63;2.60;;;;;;;-9.57;86.63;102023.88;6366872;28;20367;-75
2021/12/07 10:32:12;;;;;;;4.40;2.60;;;;;;;-9.51;86.92;102013.06;6365298;28;20496;-74
2021/12/07 10:35:32;;;;;;;2.97;2.80;;;;;;;-9.33;86.16;102012.31;6365306;28;20414;-74
2021/12/07 10:38:38;;;;;;;4.40;2.87;;;;;;;-9.19;85.45;102007.31;6366476;28;20193;-75
2021/12/07 10:41:44;;;;;;;3.00;2.80;;;;;;;-9.05;84.71;102017.31;6365905;28;20182;-76
2021/12/07 10:44:50;;;;;;;2.57;2.37;;;;;;;-9.14;84.94;102018.56;6366015;28;20207;-75
2021/12/07 10:47:55;;;;;;;2.93;2.73;;;;;;;-9.09;84.77;102024.53;6365775;28;20220;-75
2021/12/07 10:51:10;;;;;;;2.90;2.70;;;;;;;-9.10;85.27;102020.19;6365747;28;20197;-75
2021/12/07 10:54:22;;;;;;;2.47;2.40;;;;;;;-9.06;85.40;102027.03;6365706;28;20213;-75
2021/12/07 10:57:29;;;;;;;3.23;3.13;;;;;;;-9.04;84.86;102024.34;6364520;28;20189;-75
2021/12/07 11:00:40;;;;;;;2.57;2.50;;;;;;;-9.18;85.56;102030.19;6365466;28;20245;-75
2021/12/07 11:03:44;;;;;;;3.90;2.50;;;;;;;-8.93;84.80;102017.66;6364484;28;20492;-75
2021/12/07 11:07:11;;;;;;;4.63;2.73;;;;;;;-9.12;86.06;102037.88;6364695;28;20269;-76
2021/12/07 11:10:20;;;;;;;2.97;2.77;;;;;;;-9.04;85.56;102030.47;6364160;28;20214;-75
2021/12/07 11:13:34;;;;;;;2.57;2.57;;;;;;;-9.13;86.32;102030.88;6365444;28;20189;-74
2021/12/07 11:16:41;;;;;;;3.50;2.83;;;;;;;-8.93;84.90;102022.97;6363876;28;20516;-74
2021/12/07 11:19:46;;;;;;;3.00;2.80;;;;;;;-8.87;84.49;102026.28;6363884;28;20266;-74
2021/12/07 11:22:53;;;;;;;3.03;2.83;;;;;;;-8.76;84.66;102013.47;6364060;28;20236;-74
2021/12/07 11:29:41;;;;;;;3.90;2.70;;;;;;;-8.75;83.91;102025.75;6363716;28;20466;-75
2021/12/07 11:32:51;;;;;;;8.03;3.03;;;;;;;-8.80;84.52;102027.72;6364468;28;20214;-76
2021/12/07 11:35:55;;;;;;;3.37;3.10;;;;;;;-8.83;84.54;102018.13;6363589;28;20193;-74
2021/12/07 11:39:00;;;;;;;3.87;3.60;;;;;;;-8.94;85.03;102010.69;6363706;28;20485;-75
2021/12/07 11:42:08;;;;;;;2.67;2.57;;;;;;;-8.86;84.81;102012.13;6363451;28;20470;-75
2021/12/07 11:45:16;;;;;;;3.57;3.27;;;;;;;-8.86;85.25;102025.34;6364080;28;20210;-75
2021/12/07 11:48:22;;;;;;;3.83;3.43;;;;;;;-8.84;85.11;102031.44;6364641;28;20182;-75
2021/12/07 11:51:26;;;;;;;4.50;3.20;;;;;;;-8.87;85.65;102047.44;6363813;28;20241;-75
2021/12/07 11:54:34;;;;;;;3.50;3.20;;;;;;;-8.95;85.63;102039.81;6364271;28;20181;-75
2021/12/07 11:57:40;;;;;;;3.53;3.27;;;;;;;-8.92;86.16;102029.97;6364531;28;20182;-77
2021/12/07 12:00:47;;;;;;;3.00;2.83;;;;;;;-8.87;85.89;102035.06;6364111;28;20190;-74
2021/12/07 12:03:52;;;;;;;6.07;3.57;;;;;;;-8.73;85.02;102029.22;6363853;28;20446;-74
2021/12/07 12:06:58;;;;;;;3.57;3.37;;;;;;;-8.82;84.57;102019.00;6362959;28;20272;-74
2021/12/07 12:10:04;;;;;;;5.37;3.67;;;;;;;-8.83;85.27;102014.66;6363775;28;20214;-74
2021/12/07 12:13:17;;;;;;;3.50;3.20;;;;;;;-8.87;85.30;102027.13;6363772;28;20204;-74
2021/12/07 12:16:25;;;;;;;3.70;3.40;;;;;;;-8.78;84.83;102021.44;6366185;28;20187;-74
2021/12/07 12:19:44;;;;;;;4.33;3.97;;;;;;;-8.82;85.09;102019.00;6363422;28;20191;-74
2021/12/07 12:22:55;;;;;;;2.73;2.63;;;;;;;-8.90;84.91;102016.69;6363437;28;20182;-75
2021/12/07 12:26:10;;;;;;;3.03;2.93;;;;;;;-8.81;84.66;102020.72;6363628;28;20210;-74
2021/12/07 12:29:20;;;;;;;3.97;3.10;;;;;;;-8.98;85.25;102035.53;6363680;28;20194;-74
2021/12/07 12:32:30;;;;;;;3.70;3.33;;;;;;;-8.92;85.09;102018.53;6362404;28;20189;-74
2021/12/07 12:35:40;;;;;;;3.23;2.87;;;;;;;-8.84;85.24;102020.84;6363444;28;20218;-75
2021/12/07 12:38:48;;;;;;;3.70;3.50;;;;;;;-8.86;85.09;102035.94;6362941;28;20205;-74
2021/12/07 12:42:00;;;;;;;5.30;4.17;;;;;;;-8.76;84.60;102034.63;6363475;28;20200;-74
2021/12/07 12:45:11;;;;;;;4.83;3.20;;;;;;;-8.82;85.13;102024.28;6362157;28;20190;-74
2021/12/07 12:48:20;;;;;;;4.57;3.10;;;;;;;-8.92;85.24;102032.63;6361806;28;20205;-75
2021/12/07 12:51:30;;;;;;;3.57;2.90;;;;;;;-8.88;85.17;102024.56;6362416;28;20226;-75
2021/12/07 12:54:43;;;;;;;3.47;3.27;;;;;;;-8.96;85.53;102022.25;6362515;28;20182;-75
2021/12/07 12:57:50;;;;;;;5.50;3.07;;;;;;;-9.02;85.81;102023.38;6363154;28;20191;-75
2021/12/07 13:01:14;;;;;;;4.17;3.80;;;;;;;-8.95;85.65;102027.47;6363177;28;20260;-75
2021/12/07 13:04:23;;;;;;;2.53;2.43;;;;;;;-9.02;86.63;102018.06;6362949;28;20194;-75
2021/12/07 13:07:30;;;;;;;3.07;2.97;;;;;;;-9.01;86.35;102025.06;6361530;28;20217;-75
2021/12/07 13:10:54;;;;;;;7.63;3.47;;;;;;;-9.12;86.49;102027.31;6362597;28;20261;-75
2021/12/07 13:13:59;;;;;;;3.40;3.10;;;;;;;-9.14;87.05;102033.59;6362392;28;20186;-75
2021/12/07 13:17:06;;;;;;;2.60;2.50;;;;;;;-9.03;86.08;102031.34;6362494;28;20187;-75
2021/12/07 13:20:25;;;;;;;3.47;2.53;;;;;;;-9.10;86.56;102035.16;6361741;28;20370;-75
2021/12/07 13:23:32;;;;;;;3.20;3.10;;;;;;;-9.15;86.94;102048.59;6362505;28;20183;-76
2021/12/07 13:26:38;;;;;;;7.87;3.00;;;;;;;-9.18;86.96;102040.78;6362402;28;20303;-75
2021/12/07 13:29:47;;;;;;;2.20;2.10;;;;;;;-9.25;87.02;102056.94;6362635;28;20267;-75
2021/12/07 13:33:04;;;;;;;4.07;2.73;;;;;;;-9.26;87.02;102061.38;6362276;28;20546;-74
2021/12/07 13:36:48;;;;;;;3.47;3.27;;;;;;;-9.30;87.33;102051.84;6362028;28;20232;-75
2021/12/07 13:39:56;;;;;;;4.97;2.53;;;;;;;-9.34;87.13;102060.81;6361305;28;20183;-74
2021/12/07 13:43:01;;;;;;;5.07;2.93;;;;;;;-9.35;86.88;102051.19;6365347;28;20414;-74
2021/12/07 13:46:13;;;;;;;4.60;3.23;;;;;;;-9.43;87.20;102058.53;6366283;28;20357;-75
2021/12/07 13:49:18;;;;;;;4.17;2.97;;;;;;;-9.46;87.94;102071.88;6366768;28;20483;-75
2021/12/07 13:52:25;;;;;;;2.70;2.50;;;;;;;-9.47;87.95;102077.22;6365866;28;20401;-75
2021/12/07 13:55:32;;;;;;;4.00;3.57;;;;;;;-9.46;87.84;102058.66;6367337;28;20182;-75
2021/12/07 13:58:52;;;;;;;2.50;2.50;;;;;;;-9.46;87.98;102063.94;6366917;28;20260;-75
2021/12/07 14:02:00;;;;;;;4.47;3.33;;;;;;;-9.46;87.71;102065.72;6365796;28;20378;-75
2021/12/07 14:05:10;;;;;;;3.50;3.33;;;;;;;-9.51;87.97;102065.91;6365741;28;20188;-75
2021/12/07 14:08:19;;;;;;;2.63;2.60;;;;;;;-9.56;88.31;102052.03;6365852;28;20432;-75
2021/12/07 14:11:25;;;;;;;2.83;2.73;;;;;;;-9.48;88.42;102049.94;6365639;28;20481;-75
2021/12/07 14:14:29;;;;;;;2.13;2.13;;;;;;;-9.43;88.13;102047.97;6365640;28;20330;-75
2021/12/07 14:17:42;;;;;;;3.27;3.07;;;;;;;-9.45;88.13;102049.81;6366449;28;20188;-75
2021/12/07 14:20:48;;;;;;;3.07;2.87;;;;;;;-9.44;87.81;102056.81;6366330;28;20183;-75
2021/12/07 14:24:03;;;;;;;3.70;3.50;;;;;;;-9.36;87.86;102062.66;6366798;28;20194;-75
2021/12/07 14:27:09;;;;;;;3.20;3.00;;;;;;;-9.42;87.84;102060.25;6365937;28;20210;-74
2021/12/07 14:30:17;;;;;;;2.93;2.73;;;;;;;-9.40;88.00;102062.84;6365303;28;20282;-73
2021/12/07 14:33:21;;;;;;;2.77;2.67;;;;;;;-9.45;88.76;102055.13;6366684;28;20214;-74
2021/12/07 14:36:29;;;;;;;2.97;2.77;;;;;;;-9.41;88.81;102061.97;6365247;28;20481;-74
2021/12/07 14:39:35;;;;;;;2.50;2.33;;;;;;;-9.44;88.73;102070.03;6366903;28;20296;-75
2021/12/07 14:42:40;;;;;;;3.30;3.07;;;;;;;-9.38;88.58;102066.28;6364960;28;20261;-75
2021/12/07 14:45:44;;;;;;;4.70;3.70;;;;;;;-9.34;88.29;102081.94;6366634;28;20365;-75
2021/12/07 14:48:51;;;;;;;3.00;2.77;;;;;;;-9.25;87.63;102093.94;6366640;28;20210;-75
2021/12/07 14:51:55;;;;;;;3.00;2.80;;;;;;;-9.39;87.77;102083.91;6365293;28;20476;-74
2021/12/07 14:55:01;;;;;;;2.47;2.47;;;;;;;-9.40;87.80;102094.56;6365800;28;20263;-74
2021/12/07 14:58:07;;;;;;;3.20;2.90;;;;;;;-9.33;87.62;102091.63;6366247;28;20186;-74
2021/12/07 15:01:14;;;;;;;3.03;2.83;;;;;;;-9.32;87.59;102093.31;6365676;28;20233;-74
2021/12/07 15:04:20;;;;;;;2.70;2.60;;;;;;;-9.37;87.73;102079.44;6365471;28;20245;-74
2021/12/07 15:07:31;;;;;;;2.50;2.40;;;;;;;-9.39;87.75;102081.28;6365301;28;20242;-74
2021/12/07 15:10:35;;;;;;;4.20;3.17;;;;;;;-9.41;88.01;102088.41;6365040;28;20229;-75
2021/12/07 15:13:44;;;;;;;2.33;2.23;;;;;;;-9.35;87.70;102092.59;6365578;28;20189;-74
2021/12/07 15:16:51;;;;;;;3.20;2.80;;;;;;;-9.36;87.24;102085.56;6365781;28;20189;-75
2021/12/07 15:20:00;;;;;;;2.27;2.27;;;;;;;-9.39;87.82;102076.00;6365123;28;20182;-74
2021/12/07 15:23:04;;;;;;;2.70;2.60;;;;;;;-9.36;88.07;102072.38;6364058;28;20380;-74
2021/12/07 15:26:09;;;;;;;3.50;3.30;;;;;;;-9.41;87.88;102072.56;6363962;28;20183;-74
2021/12/07 15:29:18;;;;;;;2.90;2.77;;;;;;;-9.49;88.21;102064.06;6364846;28;20217;-72
2021/12/07 15:32:23;;;;;;;4.47;3.47;;;;;;;-9.49;88.40;102068.47;6363926;28;20271;-75
2021/12/07 15:35:28;;;;;;;2.93;2.73;;;;;;;-9.45;88.57;102070.97;6365167;28;20193;-73
2021/12/07 15:38:33;;;;;;;3.03;2.90;;;;;;;-9.54;88.53;102071.31;6365368;28;20194;-72